sensor_id;sensor_type;location;lat;lon;timestamp;temperature;humidity
64817;DHT22;53289;45.602;11.904;2022-08-03T00:00:13;22.30;65.50
64817;DHT22;53289;45.602;11.904;2022-08-03T00:02:41;22.20;65.60
64817;DHT22;53289;45.602;11.904;2022-08-03T00:05:07;22.30;65.50
64817;DHT22;53289;45.602;11.904;2022-08-03T00:07:34;22.30;65.40
64817;DHT22;53289;45.602;11.904;2022-08-03T00:10:00;22.30;65.60
64817;DHT22;53289;45.602;11.904;2022-08-03T00:12:26;22.30;65.30
64817;DHT22;53289;45.602;11.904;2022-08-03T00:14:52;22.30;65.30
64817;DHT22;53289;45.602;11.904;2022-08-03T00:17:17;22.30;65.50
64817;DHT22;53289;45.602;11.904;2022-08-03T00:19:43;22.30;65.30
64817;DHT22;53289;45.602;11.904;2022-08-03T00:22:09;22.30;65.40
64817;DHT22;53289;45.602;11.904;2022-08-03T00:24:35;22.20;65.30
64817;DHT22;53289;45.602;11.904;2022-08-03T00:27:01;22.20;65.60
64817;DHT22;53289;45.602;11.904;2022-08-03T00:29:27;22.20;65.50
64817;DHT22;53289;45.602;11.904;2022-08-03T00:31:53;22.10;65.80
64817;DHT22;53289;45.602;11.904;2022-08-03T00:34:18;22.00;66.20
64817;DHT22;53289;45.602;11.904;2022-08-03T00:36:44;22.00;66.30
64817;DHT22;53289;45.602;11.904;2022-08-03T00:39:10;21.90;66.50
64817;DHT22;53289;45.602;11.904;2022-08-03T00:41:36;21.90;66.60
64817;DHT22;53289;45.602;11.904;2022-08-03T00:44:02;21.90;67.00
64817;DHT22;53289;45.602;11.904;2022-08-03T00:46:28;21.80;67.00
64817;DHT22;53289;45.602;11.904;2022-08-03T00:48:54;21.80;67.20
64817;DHT22;53289;45.602;11.904;2022-08-03T00:51:21;21.70;67.30
64817;DHT22;53289;45.602;11.904;2022-08-03T00:53:47;21.60;67.40
64817;DHT22;53289;45.602;11.904;2022-08-03T00:56:15;21.60;67.50
64817;DHT22;53289;45.602;11.904;2022-08-03T00:58:43;21.50;67.70
64817;DHT22;53289;45.602;11.904;2022-08-03T01:01:09;21.50;67.90
64817;DHT22;53289;45.602;11.904;2022-08-03T01:03:37;21.40;67.80
64817;DHT22;53289;45.602;11.904;2022-08-03T01:06:17;21.50;67.90
64817;DHT22;53289;45.602;11.904;2022-08-03T01:11:26;21.50;67.70
64817;DHT22;53289;45.602;11.904;2022-08-03T01:14:08;21.50;67.70
64817;DHT22;53289;45.602;11.904;2022-08-03T01:19:30;21.50;67.50
64817;DHT22;53289;45.602;11.904;2022-08-03T01:30:32;21.40;68.00
64817;DHT22;53289;45.602;11.904;2022-08-03T01:33:03;21.40;68.00
64817;DHT22;53289;45.602;11.904;2022-08-03T01:35:42;21.40;67.90
64817;DHT22;53289;45.602;11.904;2022-08-03T01:38:12;21.30;68.00
64817;DHT22;53289;45.602;11.904;2022-08-03T01:40:41;21.30;68.10
64817;DHT22;53289;45.602;11.904;2022-08-03T01:43:12;21.20;68.20
64817;DHT22;53289;45.602;11.904;2022-08-03T01:45:40;21.30;68.30
64817;DHT22;53289;45.602;11.904;2022-08-03T01:48:08;21.20;68.20
64817;DHT22;53289;45.602;11.904;2022-08-03T01:50:36;21.30;68.10
64817;DHT22;53289;45.602;11.904;2022-08-03T01:53:03;21.20;68.10
64817;DHT22;53289;45.602;11.904;2022-08-03T01:55:30;21.20;68.30
64817;DHT22;53289;45.602;11.904;2022-08-03T01:57:59;21.20;68.40
64817;DHT22;53289;45.602;11.904;2022-08-03T02:00:28;21.20;68.50
64817;DHT22;53289;45.602;11.904;2022-08-03T02:02:55;21.20;68.60
64817;DHT22;53289;45.602;11.904;2022-08-03T02:05:22;21.00;68.90
64817;DHT22;53289;45.602;11.904;2022-08-03T02:07:50;21.10;68.90
64817;DHT22;53289;45.602;11.904;2022-08-03T02:10:19;21.00;69.10
64817;DHT22;53289;45.602;11.904;2022-08-03T02:12:46;20.90;69.20
64817;DHT22;53289;45.602;11.904;2022-08-03T02:15:15;21.00;69.40
64817;DHT22;53289;45.602;11.904;2022-08-03T02:17:46;20.90;69.50
64817;DHT22;53289;45.602;11.904;2022-08-03T02:20:13;20.90;69.50
64817;DHT22;53289;45.602;11.904;2022-08-03T02:22:41;20.90;69.50
64817;DHT22;53289;45.602;11.904;2022-08-03T02:25:08;20.90;69.90
64817;DHT22;53289;45.602;11.904;2022-08-03T02:27:37;20.80;70.10
64817;DHT22;53289;45.602;11.904;2022-08-03T02:30:07;20.70;70.00
64817;DHT22;53289;45.602;11.904;2022-08-03T02:32:36;20.70;70.20
64817;DHT22;53289;45.602;11.904;2022-08-03T02:35:06;20.60;70.30
64817;DHT22;53289;45.602;11.904;2022-08-03T02:37:40;20.70;70.80
64817;DHT22;53289;45.602;11.904;2022-08-03T02:40:09;20.60;70.60
64817;DHT22;53289;45.602;11.904;2022-08-03T02:42:37;20.50;70.80
64817;DHT22;53289;45.602;11.904;2022-08-03T02:45:08;20.50;71.00
64817;DHT22;53289;45.602;11.904;2022-08-03T02:47:39;20.50;71.20
64817;DHT22;53289;45.602;11.904;2022-08-03T02:50:08;20.50;71.40
64817;DHT22;53289;45.602;11.904;2022-08-03T02:52:36;20.40;71.30
64817;DHT22;53289;45.602;11.904;2022-08-03T02:55:04;20.50;71.40
64817;DHT22;53289;45.602;11.904;2022-08-03T02:57:33;20.50;71.40
64817;DHT22;53289;45.602;11.904;2022-08-03T03:00:01;20.50;71.60
64817;DHT22;53289;45.602;11.904;2022-08-03T03:02:28;20.50;71.30
64817;DHT22;53289;45.602;11.904;2022-08-03T03:04:55;20.50;71.10
64817;DHT22;53289;45.602;11.904;2022-08-03T03:07:21;20.50;71.00
64817;DHT22;53289;45.602;11.904;2022-08-03T03:09:47;20.50;71.00
64817;DHT22;53289;45.602;11.904;2022-08-03T03:12:15;20.50;71.00
64817;DHT22;53289;45.602;11.904;2022-08-03T03:14:42;20.50;70.90
64817;DHT22;53289;45.602;11.904;2022-08-03T03:17:11;20.50;71.00
64817;DHT22;53289;45.602;11.904;2022-08-03T03:19:40;20.50;71.00
64817;DHT22;53289;45.602;11.904;2022-08-03T03:22:09;20.40;71.00
64817;DHT22;53289;45.602;11.904;2022-08-03T03:24:35;20.40;71.00
64817;DHT22;53289;45.602;11.904;2022-08-03T03:27:03;20.40;71.00
64817;DHT22;53289;45.602;11.904;2022-08-03T03:29:30;20.40;71.00
64817;DHT22;53289;45.602;11.904;2022-08-03T03:31:57;20.40;71.10
64817;DHT22;53289;45.602;11.904;2022-08-03T03:34:23;20.40;71.00
64817;DHT22;53289;45.602;11.904;2022-08-03T03:36:49;20.40;71.10
64817;DHT22;53289;45.602;11.904;2022-08-03T03:39:15;20.40;71.20
64817;DHT22;53289;45.602;11.904;2022-08-03T03:41:42;20.40;71.40
64817;DHT22;53289;45.602;11.904;2022-08-03T03:44:08;20.40;71.40
64817;DHT22;53289;45.602;11.904;2022-08-03T03:46:34;20.40;71.40
64817;DHT22;53289;45.602;11.904;2022-08-03T03:49:00;20.40;71.40
64817;DHT22;53289;45.602;11.904;2022-08-03T03:51:26;20.40;71.50
64817;DHT22;53289;45.602;11.904;2022-08-03T03:53:55;20.30;71.60
64817;DHT22;53289;45.602;11.904;2022-08-03T03:56:22;20.40;71.70
64817;DHT22;53289;45.602;11.904;2022-08-03T03:58:48;20.30;71.60
64817;DHT22;53289;45.602;11.904;2022-08-03T04:01:15;20.30;71.70
64817;DHT22;53289;45.602;11.904;2022-08-03T04:03:42;20.30;71.80
64817;DHT22;53289;45.602;11.904;2022-08-03T04:06:08;20.30;71.80
64817;DHT22;53289;45.602;11.904;2022-08-03T04:08:53;20.30;72.00
64817;DHT22;53289;45.602;11.904;2022-08-03T04:11:42;20.30;72.10
64817;DHT22;53289;45.602;11.904;2022-08-03T04:17:00;20.30;72.00
64817;DHT22;53289;45.602;11.904;2022-08-03T04:19:42;20.30;71.80
64817;DHT22;53289;45.602;11.904;2022-08-03T04:22:13;20.40;71.80
64817;DHT22;53289;45.602;11.904;2022-08-03T04:24:45;20.40;71.70
64817;DHT22;53289;45.602;11.904;2022-08-03T04:27:14;20.40;71.70
64817;DHT22;53289;45.602;11.904;2022-08-03T04:29:45;20.40;71.60
64817;DHT22;53289;45.602;11.904;2022-08-03T04:32:12;20.40;71.50
64817;DHT22;53289;45.602;11.904;2022-08-03T04:34:39;20.50;71.40
64817;DHT22;53289;45.602;11.904;2022-08-03T04:37:11;20.50;71.40
64817;DHT22;53289;45.602;11.904;2022-08-03T04:39:38;20.60;71.40
64817;DHT22;53289;45.602;11.904;2022-08-03T04:42:08;20.60;71.20
64817;DHT22;53289;45.602;11.904;2022-08-03T04:44:40;20.70;71.10
64817;DHT22;53289;45.602;11.904;2022-08-03T04:47:07;20.70;71.00
64817;DHT22;53289;45.602;11.904;2022-08-03T04:49:36;20.80;70.80
64817;DHT22;53289;45.602;11.904;2022-08-03T04:52:04;20.90;70.80
64817;DHT22;53289;45.602;11.904;2022-08-03T04:54:39;21.00;70.60
64817;DHT22;53289;45.602;11.904;2022-08-03T04:57:05;21.10;70.30
64817;DHT22;53289;45.602;11.904;2022-08-03T04:59:31;21.20;70.10
64817;DHT22;53289;45.602;11.904;2022-08-03T05:01:57;21.40;69.90
64817;DHT22;53289;45.602;11.904;2022-08-03T05:04:23;21.40;69.40
64817;DHT22;53289;45.602;11.904;2022-08-03T05:06:49;21.50;69.20
64817;DHT22;53289;45.602;11.904;2022-08-03T05:09:15;21.60;69.10
64817;DHT22;53289;45.602;11.904;2022-08-03T05:11:41;21.70;68.80
64817;DHT22;53289;45.602;11.904;2022-08-03T05:14:07;21.80;68.70
64817;DHT22;53289;45.602;11.904;2022-08-03T05:16:33;21.90;68.60
64817;DHT22;53289;45.602;11.904;2022-08-03T05:18:59;21.90;68.40
64817;DHT22;53289;45.602;11.904;2022-08-03T05:21:25;22.00;68.30
64817;DHT22;53289;45.602;11.904;2022-08-03T05:23:51;22.10;68.30
64817;DHT22;53289;45.602;11.904;2022-08-03T05:26:17;22.20;68.10
64817;DHT22;53289;45.602;11.904;2022-08-03T05:28:43;22.30;68.00
64817;DHT22;53289;45.602;11.904;2022-08-03T05:31:08;22.40;67.90
64817;DHT22;53289;45.602;11.904;2022-08-03T05:33:35;22.40;67.90
64817;DHT22;53289;45.602;11.904;2022-08-03T05:36:01;22.50;67.60
64817;DHT22;53289;45.602;11.904;2022-08-03T05:38:27;22.60;67.80
64817;DHT22;53289;45.602;11.904;2022-08-03T05:40:53;22.70;67.70
64817;DHT22;53289;45.602;11.904;2022-08-03T05:43:19;22.90;67.90
64817;DHT22;53289;45.602;11.904;2022-08-03T05:45:45;22.90;67.30
64817;DHT22;53289;45.602;11.904;2022-08-03T05:48:11;23.00;67.00
64817;DHT22;53289;45.602;11.904;2022-08-03T05:50:37;23.10;67.40
64817;DHT22;53289;45.602;11.904;2022-08-03T05:53:03;23.20;67.10
64817;DHT22;53289;45.602;11.904;2022-08-03T05:55:29;23.40;67.00
64817;DHT22;53289;45.602;11.904;2022-08-03T05:57:55;23.50;66.50
64817;DHT22;53289;45.602;11.904;2022-08-03T06:00:21;23.60;66.10
64817;DHT22;53289;45.602;11.904;2022-08-03T06:02:47;23.60;66.10
64817;DHT22;53289;45.602;11.904;2022-08-03T06:05:13;23.80;65.80
64817;DHT22;53289;45.602;11.904;2022-08-03T06:07:39;23.80;65.50
64817;DHT22;53289;45.602;11.904;2022-08-03T06:10:06;23.90;65.30
64817;DHT22;53289;45.602;11.904;2022-08-03T06:12:32;23.90;65.30
64817;DHT22;53289;45.602;11.904;2022-08-03T06:15:01;24.10;65.10
64817;DHT22;53289;45.602;11.904;2022-08-03T06:17:29;24.20;64.80
64817;DHT22;53289;45.602;11.904;2022-08-03T06:19:55;24.30;64.90
64817;DHT22;53289;45.602;11.904;2022-08-03T06:22:22;24.40;65.10
64817;DHT22;53289;45.602;11.904;2022-08-03T06:24:47;24.50;64.90
64817;DHT22;53289;45.602;11.904;2022-08-03T06:27:13;24.60;64.20
64817;DHT22;53289;45.602;11.904;2022-08-03T06:29:39;24.80;64.00
64817;DHT22;53289;45.602;11.904;2022-08-03T06:32:05;24.90;63.90
64817;DHT22;53289;45.602;11.904;2022-08-03T06:34:31;25.00;63.60
64817;DHT22;53289;45.602;11.904;2022-08-03T06:36:57;25.10;63.60
64817;DHT22;53289;45.602;11.904;2022-08-03T06:39:23;25.20;63.40
64817;DHT22;53289;45.602;11.904;2022-08-03T06:41:49;25.40;62.90
64817;DHT22;53289;45.602;11.904;2022-08-03T06:44:16;25.50;62.70
64817;DHT22;53289;45.602;11.904;2022-08-03T06:46:42;25.60;62.40
64817;DHT22;53289;45.602;11.904;2022-08-03T06:49:08;25.70;62.10
64817;DHT22;53289;45.602;11.904;2022-08-03T06:51:34;25.90;61.80
64817;DHT22;53289;45.602;11.904;2022-08-03T06:54:00;25.90;61.40
64817;DHT22;53289;45.602;11.904;2022-08-03T06:56:26;26.00;61.20
64817;DHT22;53289;45.602;11.904;2022-08-03T06:58:52;26.20;60.90
64817;DHT22;53289;45.602;11.904;2022-08-03T07:01:18;26.40;60.40
64817;DHT22;53289;45.602;11.904;2022-08-03T07:03:44;26.60;59.70
64817;DHT22;53289;45.602;11.904;2022-08-03T07:06:10;26.70;59.30
64817;DHT22;53289;45.602;11.904;2022-08-03T07:08:36;26.90;58.90
64817;DHT22;53289;45.602;11.904;2022-08-03T07:11:02;27.20;57.80
64817;DHT22;53289;45.602;11.904;2022-08-03T07:13:28;27.40;57.00
64817;DHT22;53289;45.602;11.904;2022-08-03T07:15:55;27.60;55.30
64817;DHT22;53289;45.602;11.904;2022-08-03T07:18:21;27.90;54.70
64817;DHT22;53289;45.602;11.904;2022-08-03T07:20:48;28.00;53.30
64817;DHT22;53289;45.602;11.904;2022-08-03T07:23:14;28.20;53.40
64817;DHT22;53289;45.602;11.904;2022-08-03T07:25:39;28.50;52.70
64817;DHT22;53289;45.602;11.904;2022-08-03T07:28:05;28.70;52.20
64817;DHT22;53289;45.602;11.904;2022-08-03T07:30:31;28.90;50.40
64817;DHT22;53289;45.602;11.904;2022-08-03T07:32:57;29.10;50.30
64817;DHT22;53289;45.602;11.904;2022-08-03T07:35:23;29.20;49.80
64817;DHT22;53289;45.602;11.904;2022-08-03T07:37:49;29.40;49.80
64817;DHT22;53289;45.602;11.904;2022-08-03T07:40:15;29.60;49.30
64817;DHT22;53289;45.602;11.904;2022-08-03T07:42:42;29.80;48.80
64817;DHT22;53289;45.602;11.904;2022-08-03T07:45:08;30.00;47.00
64817;DHT22;53289;45.602;11.904;2022-08-03T07:47:34;30.20;46.50
64817;DHT22;53289;45.602;11.904;2022-08-03T07:50:00;30.30;46.60
64817;DHT22;53289;45.602;11.904;2022-08-03T07:52:26;30.50;46.70
64817;DHT22;53289;45.602;11.904;2022-08-03T07:55:10;30.70;46.60
64817;DHT22;53289;45.602;11.904;2022-08-03T07:57:37;31.00;46.30
64817;DHT22;53289;45.602;11.904;2022-08-03T08:00:05;31.20;45.70
64817;DHT22;53289;45.602;11.904;2022-08-03T08:02:32;31.30;45.00
64817;DHT22;53289;45.602;11.904;2022-08-03T08:04:57;31.50;45.40
64817;DHT22;53289;45.602;11.904;2022-08-03T08:07:23;31.70;45.60
64817;DHT22;53289;45.602;11.904;2022-08-03T08:09:51;31.90;44.20
64817;DHT22;53289;45.602;11.904;2022-08-03T08:12:17;32.10;44.20
64817;DHT22;53289;45.602;11.904;2022-08-03T08:14:43;32.30;43.40
64817;DHT22;53289;45.602;11.904;2022-08-03T08:17:12;32.60;42.60
64817;DHT22;53289;45.602;11.904;2022-08-03T08:19:38;32.70;42.10
64817;DHT22;53289;45.602;11.904;2022-08-03T08:22:04;32.90;41.70
64817;DHT22;53289;45.602;11.904;2022-08-03T08:24:32;33.00;40.90
64817;DHT22;53289;45.602;11.904;2022-08-03T08:26:59;33.20;40.90
64817;DHT22;53289;45.602;11.904;2022-08-03T08:29:26;33.30;40.60
64817;DHT22;53289;45.602;11.904;2022-08-03T08:31:52;33.40;40.20
64817;DHT22;53289;45.602;11.904;2022-08-03T08:34:18;33.60;39.70
64817;DHT22;53289;45.602;11.904;2022-08-03T08:36:44;33.80;39.60
64817;DHT22;53289;45.602;11.904;2022-08-03T08:39:09;33.90;38.60
64817;DHT22;53289;45.602;11.904;2022-08-03T08:41:37;34.00;38.90
64817;DHT22;53289;45.602;11.904;2022-08-03T08:44:03;34.20;39.10
64817;DHT22;53289;45.602;11.904;2022-08-03T08:46:32;34.20;37.50
64817;DHT22;53289;45.602;11.904;2022-08-03T08:48:59;34.10;37.80
64817;DHT22;53289;45.602;11.904;2022-08-03T08:51:30;34.10;38.20
64817;DHT22;53289;45.602;11.904;2022-08-03T08:54:00;34.20;37.60
64817;DHT22;53289;45.602;11.904;2022-08-03T08:56:27;34.20;37.50
64817;DHT22;53289;45.602;11.904;2022-08-03T08:58:57;34.40;38.40
64817;DHT22;53289;45.602;11.904;2022-08-03T09:01:25;34.60;37.80
64817;DHT22;53289;45.602;11.904;2022-08-03T09:03:51;34.90;36.80
64817;DHT22;53289;45.602;11.904;2022-08-03T09:06:22;35.20;36.50
64817;DHT22;53289;45.602;11.904;2022-08-03T09:08:48;35.30;36.90
64817;DHT22;53289;45.602;11.904;2022-08-03T09:11:14;35.50;37.00
64817;DHT22;53289;45.602;11.904;2022-08-03T09:13:41;35.70;36.20
64817;DHT22;53289;45.602;11.904;2022-08-03T09:16:16;36.00;36.00
64817;DHT22;53289;45.602;11.904;2022-08-03T09:18:44;36.00;34.90
64817;DHT22;53289;45.602;11.904;2022-08-03T09:23:52;36.20;35.30
64817;DHT22;53289;45.602;11.904;2022-08-03T09:26:24;36.00;35.80
64817;DHT22;53289;45.602;11.904;2022-08-03T09:28:56;35.90;35.10
64817;DHT22;53289;45.602;11.904;2022-08-03T09:31:33;35.90;35.10
64817;DHT22;53289;45.602;11.904;2022-08-03T09:34:08;36.00;34.90
64817;DHT22;53289;45.602;11.904;2022-08-03T09:36:43;36.10;35.20
64817;DHT22;53289;45.602;11.904;2022-08-03T09:39:22;36.40;35.20
64817;DHT22;53289;45.602;11.904;2022-08-03T09:44:37;36.10;33.70
64817;DHT22;53289;45.602;11.904;2022-08-03T09:47:08;36.40;33.50
64817;DHT22;53289;45.602;11.904;2022-08-03T09:49:38;36.40;33.90
64817;DHT22;53289;45.602;11.904;2022-08-03T09:52:17;36.70;33.20
64817;DHT22;53289;45.602;11.904;2022-08-03T09:54:49;36.80;33.00
64817;DHT22;53289;45.602;11.904;2022-08-03T09:57:23;37.00;32.40
64817;DHT22;53289;45.602;11.904;2022-08-03T09:59:51;36.90;32.70
64817;DHT22;53289;45.602;11.904;2022-08-03T10:02:22;36.90;33.20
64817;DHT22;53289;45.602;11.904;2022-08-03T10:04:49;37.00;32.50
64817;DHT22;53289;45.602;11.904;2022-08-03T10:07:21;37.20;32.40
64817;DHT22;53289;45.602;11.904;2022-08-03T10:09:58;37.20;32.20
64817;DHT22;53289;45.602;11.904;2022-08-03T10:12:25;37.20;33.00
64817;DHT22;53289;45.602;11.904;2022-08-03T10:14:52;37.10;33.20
64817;DHT22;53289;45.602;11.904;2022-08-03T10:17:20;37.30;32.90
64817;DHT22;53289;45.602;11.904;2022-08-03T10:19:46;37.50;33.10
64817;DHT22;53289;45.602;11.904;2022-08-03T10:22:21;37.70;32.40
64817;DHT22;53289;45.602;11.904;2022-08-03T10:24:58;37.90;31.60
64817;DHT22;53289;45.602;11.904;2022-08-03T10:27:26;38.10;31.50
64817;DHT22;53289;45.602;11.904;2022-08-03T10:30:01;38.30;31.60
64817;DHT22;53289;45.602;11.904;2022-08-03T10:35:20;38.50;30.10
64817;DHT22;53289;45.602;11.904;2022-08-03T10:37:53;38.40;30.70
64817;DHT22;53289;45.602;11.904;2022-08-03T10:40:21;38.50;30.90
64817;DHT22;53289;45.602;11.904;2022-08-03T10:42:50;38.40;31.30
64817;DHT22;53289;45.602;11.904;2022-08-03T10:45:20;38.70;31.10
64817;DHT22;53289;45.602;11.904;2022-08-03T10:47:49;39.10;30.80
64817;DHT22;53289;45.602;11.904;2022-08-03T10:50:18;39.10;30.50
64817;DHT22;53289;45.602;11.904;2022-08-03T10:52:57;38.90;31.10
64817;DHT22;53289;45.602;11.904;2022-08-03T11:01:12;39.10;31.10
64817;DHT22;53289;45.602;11.904;2022-08-03T11:06:21;40.00;29.70
64817;DHT22;53289;45.602;11.904;2022-08-03T11:09:35;40.50;29.90
64817;DHT22;53289;45.602;11.904;2022-08-03T11:11:40;40.70;29.40
64817;DHT22;53289;45.602;11.904;2022-08-03T11:14:17;40.40;29.30
64817;DHT22;53289;45.602;11.904;2022-08-03T11:17:06;40.40;28.40
64817;DHT22;53289;45.602;11.904;2022-08-03T11:19:52;40.80;27.80
64817;DHT22;53289;45.602;11.904;2022-08-03T11:22:19;41.10;27.40
64817;DHT22;53289;45.602;11.904;2022-08-03T11:27:23;41.50;27.90
64817;DHT22;53289;45.602;11.904;2022-08-03T11:35:21;41.20;27.90
64817;DHT22;53289;45.602;11.904;2022-08-03T11:43:03;42.60;27.40
64817;DHT22;53289;45.602;11.904;2022-08-03T11:45:29;42.70;27.50
64817;DHT22;53289;45.602;11.904;2022-08-03T11:47:56;42.70;27.40
64817;DHT22;53289;45.602;11.904;2022-08-03T11:50:25;42.70;27.00
64817;DHT22;53289;45.602;11.904;2022-08-03T11:52:51;42.90;26.30
64817;DHT22;53289;45.602;11.904;2022-08-03T11:55:19;42.80;26.60
64817;DHT22;53289;45.602;11.904;2022-08-03T11:57:47;42.60;26.90
64817;DHT22;53289;45.602;11.904;2022-08-03T12:00:27;42.20;27.10
64817;DHT22;53289;45.602;11.904;2022-08-03T12:02:58;42.10;27.20
64817;DHT22;53289;45.602;11.904;2022-08-03T12:05:34;42.30;27.70
64817;DHT22;53289;45.602;11.904;2022-08-03T12:08:01;42.70;26.70
64817;DHT22;53289;45.602;11.904;2022-08-03T12:10:27;42.80;26.50
64817;DHT22;53289;45.602;11.904;2022-08-03T12:12:55;42.90;26.60
64817;DHT22;53289;45.602;11.904;2022-08-03T12:15:30;43.20;26.20
64817;DHT22;53289;45.602;11.904;2022-08-03T12:17:59;43.40;25.40
64817;DHT22;53289;45.602;11.904;2022-08-03T12:20:28;43.60;25.90
64817;DHT22;53289;45.602;11.904;2022-08-03T12:23:00;43.90;25.00
64817;DHT22;53289;45.602;11.904;2022-08-03T12:25:26;44.00;25.30
64817;DHT22;53289;45.602;11.904;2022-08-03T12:28:09;44.30;25.00
64817;DHT22;53289;45.602;11.904;2022-08-03T12:30:35;44.60;24.20
64817;DHT22;53289;45.602;11.904;2022-08-03T12:33:15;44.80;23.50
64817;DHT22;53289;45.602;11.904;2022-08-03T12:35:42;45.00;23.30
64817;DHT22;53289;45.602;11.904;2022-08-03T12:38:10;45.30;23.40
64817;DHT22;53289;45.602;11.904;2022-08-03T12:40:41;45.40;23.70
64817;DHT22;53289;45.602;11.904;2022-08-03T12:43:13;45.60;23.30
64817;DHT22;53289;45.602;11.904;2022-08-03T12:45:39;45.70;23.00
64817;DHT22;53289;45.602;11.904;2022-08-03T12:48:08;45.70;23.40
64817;DHT22;53289;45.602;11.904;2022-08-03T12:50:38;45.60;23.70
64817;DHT22;53289;45.602;11.904;2022-08-03T12:53:08;45.50;23.60
64817;DHT22;53289;45.602;11.904;2022-08-03T12:55:36;45.50;23.50
64817;DHT22;53289;45.602;11.904;2022-08-03T12:58:05;45.40;23.50
64817;DHT22;53289;45.602;11.904;2022-08-03T13:00:33;45.40;23.40
64817;DHT22;53289;45.602;11.904;2022-08-03T13:03:06;45.50;22.90
64817;DHT22;53289;45.602;11.904;2022-08-03T13:05:44;45.40;22.80
64817;DHT22;53289;45.602;11.904;2022-08-03T13:08:21;45.00;23.30
64817;DHT22;53289;45.602;11.904;2022-08-03T13:10:48;44.70;23.80
64817;DHT22;53289;45.602;11.904;2022-08-03T13:13:14;44.70;23.30
64817;DHT22;53289;45.602;11.904;2022-08-03T13:15:40;44.80;23.40
64817;DHT22;53289;45.602;11.904;2022-08-03T13:18:07;44.80;23.10
64817;DHT22;53289;45.602;11.904;2022-08-03T13:20:33;44.40;23.30
64817;DHT22;53289;45.602;11.904;2022-08-03T13:22:59;44.50;23.10
64817;DHT22;53289;45.602;11.904;2022-08-03T13:25:25;44.40;23.10
64817;DHT22;53289;45.602;11.904;2022-08-03T13:27:51;44.50;23.30
64817;DHT22;53289;45.602;11.904;2022-08-03T13:30:17;44.50;23.30
64817;DHT22;53289;45.602;11.904;2022-08-03T13:32:44;44.70;23.50
64817;DHT22;53289;45.602;11.904;2022-08-03T13:35:10;44.80;23.60
64817;DHT22;53289;45.602;11.904;2022-08-03T13:37:37;44.90;23.50
64817;DHT22;53289;45.602;11.904;2022-08-03T13:40:05;44.60;23.20
64817;DHT22;53289;45.602;11.904;2022-08-03T13:42:34;44.20;22.90
64817;DHT22;53289;45.602;11.904;2022-08-03T13:45:01;43.40;23.20
64817;DHT22;53289;45.602;11.904;2022-08-03T13:47:28;42.60;23.80
64817;DHT22;53289;45.602;11.904;2022-08-03T13:49:54;42.00;24.50
64817;DHT22;53289;45.602;11.904;2022-08-03T13:52:20;41.50;25.10
64817;DHT22;53289;45.602;11.904;2022-08-03T13:54:46;41.20;25.50
64817;DHT22;53289;45.602;11.904;2022-08-03T13:57:12;41.10;25.80
64817;DHT22;53289;45.602;11.904;2022-08-03T13:59:37;41.20;26.20
64817;DHT22;53289;45.602;11.904;2022-08-03T14:02:04;41.70;25.50
64817;DHT22;53289;45.602;11.904;2022-08-03T14:04:30;41.60;25.80
64817;DHT22;53289;45.602;11.904;2022-08-03T14:06:56;41.60;25.70
64817;DHT22;53289;45.602;11.904;2022-08-03T14:09:21;41.70;25.70
64817;DHT22;53289;45.602;11.904;2022-08-03T14:11:48;42.00;25.30
64817;DHT22;53289;45.602;11.904;2022-08-03T14:14:14;42.30;25.00
64817;DHT22;53289;45.602;11.904;2022-08-03T14:16:40;42.30;25.00
64817;DHT22;53289;45.602;11.904;2022-08-03T14:19:06;42.30;25.00
64817;DHT22;53289;45.602;11.904;2022-08-03T14:21:33;42.30;25.20
64817;DHT22;53289;45.602;11.904;2022-08-03T14:24:00;42.50;26.00
64817;DHT22;53289;45.602;11.904;2022-08-03T14:26:26;42.20;26.50
64817;DHT22;53289;45.602;11.904;2022-08-03T14:28:52;42.10;27.30
64817;DHT22;53289;45.602;11.904;2022-08-03T14:31:18;42.00;27.90
64817;DHT22;53289;45.602;11.904;2022-08-03T14:33:44;42.00;27.80
64817;DHT22;53289;45.602;11.904;2022-08-03T14:36:10;41.90;27.80
64817;DHT22;53289;45.602;11.904;2022-08-03T14:38:36;41.90;27.80
64817;DHT22;53289;45.602;11.904;2022-08-03T14:41:01;41.50;28.50
64817;DHT22;53289;45.602;11.904;2022-08-03T14:43:27;41.00;29.10
64817;DHT22;53289;45.602;11.904;2022-08-03T14:45:54;40.60;29.60
64817;DHT22;53289;45.602;11.904;2022-08-03T14:48:21;40.40;29.80
64817;DHT22;53289;45.602;11.904;2022-08-03T14:50:47;40.40;29.80
64817;DHT22;53289;45.602;11.904;2022-08-03T14:53:14;40.70;29.40
64817;DHT22;53289;45.602;11.904;2022-08-03T14:55:42;40.70;29.40
64817;DHT22;53289;45.602;11.904;2022-08-03T14:58:08;40.70;29.10
64817;DHT22;53289;45.602;11.904;2022-08-03T15:00:34;40.70;29.00
64817;DHT22;53289;45.602;11.904;2022-08-03T15:03:02;40.50;29.20
64817;DHT22;53289;45.602;11.904;2022-08-03T15:05:29;40.50;29.40
64817;DHT22;53289;45.602;11.904;2022-08-03T15:07:55;40.70;29.20
64817;DHT22;53289;45.602;11.904;2022-08-03T15:10:21;40.70;29.10
64817;DHT22;53289;45.602;11.904;2022-08-03T15:12:47;40.60;29.20
64817;DHT22;53289;45.602;11.904;2022-08-03T15:15:14;40.70;29.00
64817;DHT22;53289;45.602;11.904;2022-08-03T15:17:40;40.80;28.60
64817;DHT22;53289;45.602;11.904;2022-08-03T15:20:06;40.70;28.50
64817;DHT22;53289;45.602;11.904;2022-08-03T15:22:33;40.70;28.60
64817;DHT22;53289;45.602;11.904;2022-08-03T15:25:01;40.70;28.60
64817;DHT22;53289;45.602;11.904;2022-08-03T15:27:27;40.90;28.20
64817;DHT22;53289;45.602;11.904;2022-08-03T15:29:53;40.90;28.00
64817;DHT22;53289;45.602;11.904;2022-08-03T15:32:19;41.00;27.80
64817;DHT22;53289;45.602;11.904;2022-08-03T15:34:46;40.90;27.30
64817;DHT22;53289;45.602;11.904;2022-08-03T15:37:12;40.70;27.60
64817;DHT22;53289;45.602;11.904;2022-08-03T15:39:38;40.30;28.10
64817;DHT22;53289;45.602;11.904;2022-08-03T15:42:04;40.00;28.40
64817;DHT22;53289;45.602;11.904;2022-08-03T15:44:29;39.60;28.70
64817;DHT22;53289;45.602;11.904;2022-08-03T15:46:55;39.10;28.10
64817;DHT22;53289;45.602;11.904;2022-08-03T15:49:21;38.60;27.80
64817;DHT22;53289;45.602;11.904;2022-08-03T15:51:47;38.30;27.70
64817;DHT22;53289;45.602;11.904;2022-08-03T15:54:13;37.90;28.50
64817;DHT22;53289;45.602;11.904;2022-08-03T15:56:39;37.50;28.80
64817;DHT22;53289;45.602;11.904;2022-08-03T15:59:10;37.20;28.80
64817;DHT22;53289;45.602;11.904;2022-08-03T16:01:37;36.80;28.60
64817;DHT22;53289;45.602;11.904;2022-08-03T16:04:03;36.10;29.00
64817;DHT22;53289;45.602;11.904;2022-08-03T16:06:30;35.70;29.70